Time;durP1;ratioP1;P1;durP2;ratioP2;P2;SDS_P1;SDS_P2;PMS_P1;PMS_P2;Temp;Humidity;BMP_temperature;BMP_pressure;BME280_temperature;BME280_humidity;BME280_pressure;Samples;Min_cycle;Max_cycle;Signal;HPM_P1;HPM_P2
2021/06/08 00:00:39;;;;;;;1.38;1.20;;;18.90;99.90;;;;;;5092578;28;20552;-76
2021/06/08 00:03:06;;;;;;;1.40;1.30;;;19.00;99.90;;;;;;5091638;28;20103;-75
2021/06/08 00:05:32;;;;;;;1.50;1.40;;;19.00;99.90;;;;;;5092533;28;20021;-75
2021/06/08 00:08:00;;;;;;;1.75;1.65;;;18.80;99.90;;;;;;5091994;28;20036;-78
2021/06/08 00:10:26;;;;;;;1.58;1.48;;;18.80;99.90;;;;;;5092410;28;20368;-74
2021/06/08 00:12:52;;;;;;;2.03;1.92;;;19.00;99.90;;;;;;5092130;28;20032;-76
2021/06/08 00:15:18;;;;;;;1.45;1.35;;;19.10;99.90;;;;;;5092246;28;20046;-76
2021/06/08 00:17:44;;;;;;;1.60;1.50;;;19.10;99.90;;;;;;5092168;28;20349;-75
2021/06/08 00:20:11;;;;;;;1.20;1.10;;;19.20;99.90;;;;;;5091979;28;20072;-76
2021/06/08 00:22:36;;;;;;;1.27;1.17;;;19.20;99.90;;;;;;5092090;28;20074;-75
2021/06/08 00:25:03;;;;;;;1.00;1.00;;;19.20;99.90;;;;;;5091770;28;20048;-75
2021/06/08 00:27:29;;;;;;;2.55;1.90;;;19.20;99.90;;;;;;5091298;28;20419;-77
2021/06/08 00:29:55;;;;;;;1.23;1.13;;;19.20;99.90;;;;;;5092136;28;20534;-76
2021/06/08 00:32:21;;;;;;;1.40;1.30;;;19.20;99.90;;;;;;5091515;28;20424;-75
2021/06/08 00:34:47;;;;;;;1.00;1.00;;;19.30;99.90;;;;;;5091691;28;20024;-75
2021/06/08 00:37:12;;;;;;;1.45;1.35;;;19.20;99.90;;;;;;5091359;28;20437;-76
2021/06/08 00:39:38;;;;;;;1.30;1.20;;;19.20;99.90;;;;;;5091842;28;20032;-76
2021/06/08 00:42:04;;;;;;;1.30;1.20;;;19.20;99.90;;;;;;5091556;28;20089;-77
2021/06/08 00:44:30;;;;;;;1.45;1.35;;;19.20;99.90;;;;;;5091289;28;20030;-75
2021/06/08 00:46:56;;;;;;;1.00;1.00;;;19.20;99.90;;;;;;5091291;28;20020;-75
2021/06/08 00:49:22;;;;;;;1.85;1.75;;;19.20;99.90;;;;;;5091298;28;20058;-74
2021/06/08 00:51:48;;;;;;;1.10;1.10;;;19.20;99.90;;;;;;5091640;28;20036;-76
2021/06/08 00:54:14;;;;;;;1.35;1.25;;;19.20;99.90;;;;;;5091811;28;20544;-75
2021/06/08 00:56:42;;;;;;;1.40;1.30;;;19.20;99.90;;;;;;5091046;28;20467;-74
2021/06/08 00:59:08;;;;;;;1.15;1.10;;;19.10;99.90;;;;;;5091246;28;20490;-74
2021/06/08 01:01:35;;;;;;;2.38;2.17;;;19.10;99.90;;;;;;5091053;28;20037;-74
2021/06/08 01:04:06;;;;;;;1.52;1.42;;;19.10;99.90;;;;;;5091315;28;20141;-76
2021/06/08 01:06:33;;;;;;;1.67;1.58;;;19.10;99.90;;;;;;5090656;28;20024;-75
2021/06/08 01:08:59;;;;;;;1.35;1.25;;;19.10;99.90;;;;;;5091613;28;20043;-76
2021/06/08 01:11:25;;;;;;;1.42;1.33;;;19.10;99.90;;;;;;5090954;28;20020;-76
2021/06/08 01:13:50;;;;;;;1.30;1.20;;;19.10;99.90;;;;;;5090851;28;20032;-75
2021/06/08 01:16:16;;;;;;;3.08;1.50;;;19.10;99.90;;;;;;5090691;28;20044;-74
2021/06/08 01:18:42;;;;;;;2.45;2.25;;;19.10;99.90;;;;;;5091236;28;20016;-77
2021/06/08 01:21:09;;;;;;;1.40;1.30;;;19.10;99.90;;;;;;5090567;28;20028;-76
2021/06/08 01:23:36;;;;;;;1.42;1.33;;;19.10;99.90;;;;;;5091310;28;20111;-76
2021/06/08 01:26:03;;;;;;;1.30;1.20;;;18.80;99.90;;;;;;5050776;28;20037;-75
2021/06/08 01:28:31;;;;;;;1.10;1.10;;;18.80;99.90;;;;;;5050961;28;20414;-76
2021/06/08 01:30:57;;;;;;;1.50;1.40;;;18.60;99.90;;;;;;5051117;28;20024;-75
2021/06/08 01:33:26;;;;;;;2.15;1.67;;;18.80;99.90;;;;;;5050876;28;20021;-76
2021/06/08 01:35:54;;;;;;;1.23;1.15;;;18.90;99.90;;;;;;5050856;28;20059;-76
2021/06/08 01:38:20;;;;;;;1.20;1.13;;;18.70;99.90;;;;;;5050364;28;20060;-76
2021/06/08 01:40:49;;;;;;;2.10;1.90;;;18.80;99.90;;;;;;5052791;28;20029;-76
2021/06/08 01:43:15;;;;;;;1.42;1.33;;;18.90;99.90;;;;;;5054380;28;20044;-76
2021/06/08 01:45:47;;;;;;;1.98;1.85;;;18.90;99.90;;;;;;5054891;28;20025;-75
2021/06/08 01:48:13;;;;;;;1.58;1.48;;;18.90;99.90;;;;;;5054413;28;20045;-74
2021/06/08 01:50:39;;;;;;;1.20;1.15;;;18.80;99.90;;;;;;5054847;28;20043;-74
2021/06/08 01:53:30;;;;;;;4.10;3.33;;;18.50;99.90;;;;;;5054554;28;20107;-75
2021/06/08 01:56:02;;;;;;;3.35;1.83;;;18.20;99.90;;;;;;5054649;28;20029;-74
2021/06/08 01:59:04;;;;;;;1.17;1.10;;;18.20;99.90;;;;;;5054167;28;20054;-75
2021/06/08 02:01:59;;;;;;;2.55;1.77;;;18.40;99.90;;;;;;5054406;28;20052;-76
2021/06/08 02:04:37;;;;;;;1.50;1.40;;;18.60;99.90;;;;;;5054557;28;20074;-74
2021/06/08 02:07:21;;;;;;;1.30;1.20;;;18.50;99.90;;;;;;5054248;28;20025;-76
2021/06/08 02:09:59;;;;;;;1.40;1.30;;;18.60;99.90;;;;;;5054476;28;20151;-76
2021/06/08 02:12:28;;;;;;;1.10;1.10;;;18.60;99.90;;;;;;5054218;28;20028;-75
2021/06/08 02:15:02;;;;;;;1.30;1.20;;;18.60;99.90;;;;;;5054240;28;20040;-77
2021/06/08 02:17:36;;;;;;;1.30;1.20;;;18.50;99.90;;;;;;5053686;28;20392;-75
2021/06/08 02:20:12;;;;;;;1.65;1.55;;;18.20;99.90;;;;;;5053819;28;20035;-73
2021/06/08 02:22:41;;;;;;;1.30;1.20;;;18.10;99.90;;;;;;5053915;28;20021;-77
2021/06/08 02:25:09;;;;;;;1.50;1.40;;;18.20;99.90;;;;;;5079590;28;20471;-74
2021/06/08 02:27:36;;;;;;;1.30;1.20;;;18.40;99.90;;;;;;5093919;28;20035;-75
2021/06/08 02:30:02;;;;;;;1.50;1.40;;;18.50;99.90;;;;;;5075921;28;20478;-74
2021/06/08 02:32:30;;;;;;;1.30;1.20;;;18.70;99.90;;;;;;5094206;28;20074;-76
2021/06/08 02:34:59;;;;;;;1.40;1.30;;;18.70;99.90;;;;;;5093665;28;20032;-74
2021/06/08 02:37:26;;;;;;;1.30;1.20;;;18.70;99.90;;;;;;5093706;28;20028;-74
2021/06/08 02:39:52;;;;;;;1.73;1.63;;;18.70;99.90;;;;;;5094225;28;20107;-77
2021/06/08 02:42:20;;;;;;;1.35;1.25;;;18.70;99.90;;;;;;5093709;28;20024;-74
2021/06/08 02:44:47;;;;;;;1.60;1.50;;;18.70;99.90;;;;;;5094102;28;20024;-76
2021/06/08 02:47:15;;;;;;;1.40;1.30;;;18.70;99.90;;;;;;5093570;28;20026;-75
2021/06/08 02:49:42;;;;;;;1.35;1.25;;;18.70;99.90;;;;;;5093879;28;20102;-75
2021/06/08 02:52:08;;;;;;;1.40;1.30;;;18.70;99.90;;;;;;5093535;28;20062;-74
2021/06/08 02:54:34;;;;;;;1.38;1.27;;;18.70;99.90;;;;;;5093414;28;20041;-75
2021/06/08 02:57:01;;;;;;;1.60;1.50;;;18.70;99.90;;;;;;5075149;28;20480;-75
2021/06/08 02:59:31;;;;;;;1.20;1.10;;;18.70;99.90;;;;;;5093496;28;20424;-74
2021/06/08 03:01:58;;;;;;;1.40;1.30;;;18.70;99.90;;;;;;5093865;28;20024;-74
2021/06/08 03:04:33;;;;;;;1.50;1.40;;;18.70;99.90;;;;;;5093601;28;20034;-74
2021/06/08 03:07:01;;;;;;;1.70;1.60;;;18.70;99.90;;;;;;5093099;28;20028;-75
2021/06/08 03:09:54;;;;;;;1.40;1.30;;;18.60;99.90;;;;;;5093472;28;20027;-75
2021/06/08 03:12:25;;;;;;;1.73;1.55;;;18.50;99.90;;;;;;5092941;28;20024;-75
2021/06/08 03:14:52;;;;;;;1.40;1.30;;;18.50;99.90;;;;;;5093140;28;20032;-75
2021/06/08 03:17:21;;;;;;;1.55;1.45;;;18.60;99.90;;;;;;5093084;28;20458;-75
2021/06/08 03:19:47;;;;;;;1.30;1.20;;;18.60;99.90;;;;;;5093452;28;20028;-76
2021/06/08 03:22:17;;;;;;;1.40;1.30;;;18.60;99.90;;;;;;5093289;28;20111;-77
2021/06/08 03:24:48;;;;;;;1.77;1.67;;;18.70;99.90;;;;;;5093038;28;20117;-77
2021/06/08 03:27:14;;;;;;;1.30;1.20;;;18.70;99.90;;;;;;5092898;28;20028;-75
2021/06/08 03:29:41;;;;;;;1.65;1.55;;;18.70;99.90;;;;;;5092810;28;20028;-76
2021/06/08 03:32:07;;;;;;;1.17;1.10;;;18.70;99.90;;;;;;5093231;28;20028;-77
2021/06/08 03:34:35;;;;;;;1.40;1.30;;;18.70;99.90;;;;;;5092915;28;20074;-75
2021/06/08 03:37:02;;;;;;;1.30;1.20;;;18.70;99.90;;;;;;5092750;28;20020;-76
2021/06/08 03:39:29;;;;;;;1.70;1.60;;;18.60;99.90;;;;;;5092838;28;20582;-77
2021/06/08 03:41:57;;;;;;;1.60;1.50;;;18.60;99.90;;;;;;5074676;28;20493;-75
2021/06/08 03:44:23;;;;;;;1.52;1.42;;;18.70;99.90;;;;;;5092777;28;20078;-77
2021/06/08 03:46:50;;;;;;;1.50;1.40;;;18.60;99.90;;;;;;5092567;28;20448;-76
2021/06/08 03:49:18;;;;;;;2.42;2.22;;;18.70;99.90;;;;;;5092548;28;20361;-76
2021/06/08 03:51:47;;;;;;;1.20;1.10;;;18.70;99.90;;;;;;5092538;28;20379;-74
2021/06/08 03:54:13;;;;;;;1.30;1.20;;;18.70;99.90;;;;;;5092928;28;20360;-74
2021/06/08 03:56:42;;;;;;;1.30;1.20;;;18.80;99.90;;;;;;5092430;28;20042;-74
2021/06/08 03:59:10;;;;;;;2.13;1.80;;;18.90;99.90;;;;;;5092346;28;20026;-74
2021/06/08 04:01:37;;;;;;;1.00;1.00;;;18.90;99.90;;;;;;5092138;28;20142;-75
2021/06/08 04:04:05;;;;;;;1.30;1.20;;;18.90;99.90;;;;;;5092384;28;20020;-75
2021/06/08 04:06:32;;;;;;;1.17;1.15;;;19.00;99.90;;;;;;5091897;28;20027;-73
2021/06/08 04:09:02;;;;;;;1.30;1.20;;;19.00;99.90;;;;;;5092684;28;20395;-75
2021/06/08 04:11:31;;;;;;;1.30;1.20;;;19.00;99.90;;;;;;5092120;28;20031;-75
2021/06/08 04:13:58;;;;;;;1.10;1.10;;;18.90;99.90;;;;;;5092144;28;20036;-75
2021/06/08 04:16:23;;;;;;;2.63;1.90;;;18.90;99.90;;;;;;5092011;28;20035;-75
2021/06/08 04:18:50;;;;;;;1.42;1.33;;;19.00;99.90;;;;;;5092183;28;20043;-74
2021/06/08 04:21:16;;;;;;;1.42;1.33;;;19.00;99.90;;;;;;5092347;28;20043;-76
2021/06/08 04:23:42;;;;;;;1.20;1.10;;;18.90;99.90;;;;;;5092073;28;20067;-75
2021/06/08 04:26:08;;;;;;;2.45;2.25;;;19.00;99.90;;;;;;5091512;28;20034;-75
2021/06/08 04:28:34;;;;;;;1.58;1.48;;;19.10;99.90;;;;;;5091641;28;20028;-75
2021/06/08 04:31:00;;;;;;;1.55;1.45;;;19.00;99.90;;;;;;5092237;28;20103;-75
2021/06/08 04:33:28;;;;;;;1.50;1.40;;;19.00;99.90;;;;;;5092095;28;20349;-76
2021/06/08 04:35:54;;;;;;;1.30;1.20;;;19.10;99.90;;;;;;5091591;28;20031;-76
2021/06/08 04:38:21;;;;;;;1.50;1.40;;;19.00;99.90;;;;;;5091633;28;20367;-76
2021/06/08 04:40:49;;;;;;;1.50;1.30;;;18.90;99.90;;;;;;5091824;28;20051;-76
2021/06/08 04:43:23;;;;;;;1.30;1.20;;;19.00;99.90;;;;;;5091609;28;20012;-75
2021/06/08 04:45:50;;;;;;;1.10;1.10;;;19.20;99.90;;;;;;5091403;28;20020;-75
2021/06/08 04:48:16;;;;;;;1.40;1.30;;;19.40;99.90;;;;;;5091766;28;20023;-74
2021/06/08 04:50:42;;;;;;;1.08;1.05;;;19.40;99.90;;;;;;5091143;28;20049;-73
2021/06/08 04:53:08;;;;;;;1.20;1.10;;;19.20;99.90;;;;;;5091601;28;20264;-75
2021/06/08 04:55:34;;;;;;;1.52;1.42;;;19.10;99.90;;;;;;5091332;28;20047;-76
2021/06/08 04:58:00;;;;;;;11.50;2.85;;;19.20;99.90;;;;;;5091136;28;20024;-75
2021/06/08 05:00:44;;;;;;;1.05;1.02;;;19.10;99.90;;;;;;5091674;28;20039;-76
2021/06/08 05:03:11;;;;;;;1.30;1.20;;;19.30;99.90;;;;;;5072712;28;20023;-75
2021/06/08 05:05:41;;;;;;;1.13;1.10;;;19.60;99.90;;;;;;5091590;28;20418;-74
2021/06/08 05:08:09;;;;;;;1.23;1.13;;;19.80;99.90;;;;;;5091487;28;20119;-75
2021/06/08 05:10:43;;;;;;;3.15;2.90;;;20.00;99.90;;;;;;5088178;28;20028;-75
2021/06/08 05:13:11;;;;;;;5.55;3.97;;;20.20;99.90;;;;;;5089285;28;20087;-73
2021/06/08 05:15:41;;;;;;;3.03;2.22;;;20.20;99.90;;;;;;5089134;28;20036;-75
2021/06/08 05:18:10;;;;;;;0.90;0.90;;;20.40;99.90;;;;;;5090925;28;20065;-75
2021/06/08 05:20:39;;;;;;;0.90;0.90;;;20.30;99.90;;;;;;5090786;28;20096;-73
2021/06/08 05:23:06;;;;;;;0.90;0.90;;;20.20;99.90;;;;;;5090785;28;20052;-75
2021/06/08 05:25:33;;;;;;;3.53;2.67;;;20.40;99.90;;;;;;5102085;28;20051;-75
2021/06/08 05:28:00;;;;;;;6.00;4.93;;;20.50;99.90;;;;;;5111265;28;20524;-76
2021/06/08 05:30:27;;;;;;;3.28;2.97;;;20.50;99.90;;;;;;5111161;28;20064;-74
2021/06/08 05:32:53;;;;;;;1.10;1.10;;;20.40;99.90;;;;;;5111115;28;20028;-74
2021/06/08 05:35:29;;;;;;;1.60;1.50;;;20.10;99.90;;;;;;5101360;28;20097;-75
2021/06/08 05:38:03;;;;;;;1.13;1.10;;;20.30;99.90;;;;;;5090493;28;20634;-75
2021/06/08 05:40:29;;;;;;;0.93;0.93;;;20.50;99.90;;;;;;5090733;28;20032;-76
2021/06/08 05:42:55;;;;;;;1.42;1.35;;;20.70;99.90;;;;;;5090740;28;20043;-75
2021/06/08 05:45:21;;;;;;;0.80;0.80;;;20.80;99.90;;;;;;5090391;28;20031;-75
2021/06/08 05:47:47;;;;;;;0.90;0.90;;;20.80;99.90;;;;;;5090501;28;20073;-76
2021/06/08 05:50:12;;;;;;;1.00;1.00;;;20.90;99.90;;;;;;5098111;28;20027;-77
2021/06/08 05:52:39;;;;;;;1.00;1.00;;;21.00;99.90;;;;;;5103558;28;20039;-80
2021/06/08 05:55:06;;;;;;;1.45;1.35;;;20.90;99.90;;;;;;5063156;28;20040;-75
2021/06/08 05:57:32;;;;;;;2.70;1.55;;;20.90;99.90;;;;;;5079009;28;20033;-75
2021/06/08 06:00:02;;;;;;;2.10;1.90;;;20.70;99.90;;;;;;5072585;28;20098;-78
2021/06/08 06:02:28;;;;;;;1.65;1.55;;;20.70;99.90;;;;;;5093171;28;20016;-77
2021/06/08 06:04:55;;;;;;;1.42;1.33;;;20.60;99.90;;;;;;5109909;28;20078;-78
2021/06/08 06:07:22;;;;;;;2.30;2.10;;;20.80;99.90;;;;;;5091068;28;20036;-77
2021/06/08 06:09:48;;;;;;;1.58;1.48;;;20.80;99.90;;;;;;5090742;28;20425;-76
2021/06/08 06:12:14;;;;;;;1.40;1.30;;;20.90;99.90;;;;;;5090231;28;20479;-75
2021/06/08 06:14:41;;;;;;;1.25;1.15;;;21.00;99.90;;;;;;5079975;28;20150;-77
2021/06/08 06:17:08;;;;;;;0.80;0.80;;;21.10;99.90;;;;;;5069611;28;20029;-77
2021/06/08 06:19:35;;;;;;;1.05;1.02;;;21.30;99.90;;;;;;5089149;28;20344;-75
2021/06/08 06:22:01;;;;;;;0.70;0.70;;;21.40;99.90;;;;;;5089821;28;20024;-78
2021/06/08 06:24:31;;;;;;;1.38;1.27;;;21.50;99.90;;;;;;5090248;28;20035;-75
2021/06/08 06:26:56;;;;;;;1.98;1.73;;;21.60;99.90;;;;;;5093340;28;20471;-75
2021/06/08 06:29:24;;;;;;;1.50;1.40;;;21.60;99.90;;;;;;5089568;28;20055;-76
2021/06/08 06:31:50;;;;;;;1.20;1.10;;;21.50;99.90;;;;;;5089001;28;20407;-77
2021/06/08 06:34:21;;;;;;;0.85;0.85;;;21.40;99.90;;;;;;5094049;28;20081;-78
2021/06/08 06:36:48;;;;;;;0.80;0.80;;;21.20;99.90;;;;;;5093757;28;20032;-76
2021/06/08 06:39:27;;;;;;;1.40;1.30;;;21.40;99.90;;;;;;5094111;28;20093;-76
2021/06/08 06:41:56;;;;;;;0.82;0.82;;;21.30;99.90;;;;;;5093787;28;20032;-76
2021/06/08 06:44:23;;;;;;;0.88;0.88;;;21.30;99.90;;;;;;5090145;28;20020;-75
2021/06/08 06:46:52;;;;;;;1.33;1.23;;;21.40;99.90;;;;;;5073203;28;20543;-76
2021/06/08 06:49:21;;;;;;;1.95;1.85;;;21.60;99.90;;;;;;5073311;28;20024;-76
2021/06/08 06:51:48;;;;;;;0.80;0.80;;;21.70;99.90;;;;;;5073709;28;20037;-77
2021/06/08 06:54:14;;;;;;;1.33;1.23;;;21.80;99.90;;;;;;5089086;28;20052;-77
2021/06/08 06:56:43;;;;;;;0.80;0.80;;;21.90;99.90;;;;;;5092176;28;20024;-75
2021/06/08 06:59:08;;;;;;;1.38;1.33;;;22.00;99.90;;;;;;5097953;28;20650;-76
2021/06/08 07:01:35;;;;;;;1.10;1.10;;;22.10;99.90;;;;;;5093478;28;20036;-75
2021/06/08 07:04:03;;;;;;;1.42;1.33;;;22.00;99.90;;;;;;5109181;28;20027;-76
2021/06/08 07:06:30;;;;;;;0.70;0.70;;;22.10;99.90;;;;;;5113742;28;20027;-76
2021/06/08 07:08:58;;;;;;;0.93;0.93;;;22.00;99.90;;;;;;5113787;28;20035;-77
2021/06/08 07:11:25;;;;;;;1.40;1.30;;;21.70;99.90;;;;;;5113054;28;20498;-76
2021/06/08 07:13:51;;;;;;;3.47;2.65;;;21.80;99.90;;;;;;5113414;28;20571;-76
2021/06/08 07:16:20;;;;;;;0.82;0.82;;;22.00;99.90;;;;;;5073489;28;20043;-76
2021/06/08 07:18:47;;;;;;;1.85;1.27;;;21.80;99.90;;;;;;5072766;28;20044;-76
2021/06/08 07:21:15;;;;;;;2.65;2.03;;;21.70;99.90;;;;;;5073136;28;20825;-74
2021/06/08 07:23:43;;;;;;;12.00;2.42;;;22.00;99.90;;;;;;5074135;28;20029;-74
2021/06/08 07:26:11;;;;;;;0.90;0.90;;;22.20;99.90;;;;;;5092706;28;20036;-74
2021/06/08 07:28:37;;;;;;;4.93;1.95;;;22.30;99.90;;;;;;5099933;28;20024;-75
2021/06/08 07:31:03;;;;;;;1.00;0.98;;;22.30;99.90;;;;;;5080933;28;20027;-75
2021/06/08 07:33:51;;;;;;;0.80;0.80;;;22.30;99.90;;;;;;5100865;28;20368;-75
2021/06/08 07:36:28;;;;;;;1.15;1.08;;;22.40;99.90;;;;;;5101849;28;20427;-76
2021/06/08 07:39:05;;;;;;;0.80;0.80;;;22.50;99.90;;;;;;5100528;28;20490;-76
2021/06/08 07:42:02;;;;;;;0.80;0.80;;;22.50;99.90;;;;;;5095534;28;20163;-75
2021/06/08 07:44:31;;;;;;;1.90;1.80;;;22.60;99.90;;;;;;5087513;28;20396;-76
2021/06/08 07:47:02;;;;;;;0.80;0.80;;;22.60;99.90;;;;;;5071786;28;20036;-76
2021/06/08 07:49:29;;;;;;;0.88;0.88;;;22.20;99.90;;;;;;5071861;28;20023;-75
2021/06/08 07:51:55;;;;;;;0.73;0.73;;;22.30;99.90;;;;;;5072001;28;20107;-75
2021/06/08 07:54:23;;;;;;;0.60;0.60;;;22.20;99.90;;;;;;5084051;28;20130;-77
2021/06/08 07:56:50;;;;;;;0.70;0.70;;;22.00;99.90;;;;;;5091834;28;20028;-74
2021/06/08 07:59:16;;;;;;;0.70;0.70;;;22.20;99.90;;;;;;5089531;28;20055;-76
2021/06/08 08:01:42;;;;;;;1.23;1.13;;;22.20;99.90;;;;;;5071915;28;20150;-76
2021/06/08 08:04:10;;;;;;;13.35;2.67;;;22.10;99.90;;;;;;5071736;28;20035;-75
2021/06/08 08:06:36;;;;;;;0.70;0.70;;;22.50;99.90;;;;;;5071814;28;20020;-75
2021/06/08 08:09:04;;;;;;;0.75;0.75;;;22.70;99.90;;;;;;5071889;28;20475;-76
2021/06/08 08:11:32;;;;;;;1.05;1.00;;;22.80;99.90;;;;;;5071765;28;20032;-76
2021/06/08 08:13:59;;;;;;;1.33;1.23;;;22.70;99.90;;;;;;5071391;28;20033;-77
2021/06/08 08:16:25;;;;;;;0.65;0.65;;;22.80;99.90;;;;;;5071294;28;20020;-77
2021/06/08 08:18:52;;;;;;;0.80;0.80;;;22.90;99.90;;;;;;5071325;28;20032;-77
2021/06/08 08:21:20;;;;;;;0.70;0.70;;;23.00;99.90;;;;;;5071534;28;20043;-75
2021/06/08 08:23:47;;;;;;;1.00;0.95;;;23.10;99.90;;;;;;5071834;28;20036;-77
2021/06/08 08:26:13;;;;;;;0.50;0.50;;;23.30;99.90;;;;;;5091058;28;20032;-75
2021/06/08 08:28:44;;;;;;;0.70;0.70;;;23.30;99.90;;;;;;5091639;28;20032;-75
2021/06/08 08:31:15;;;;;;;1.27;1.15;;;23.00;99.90;;;;;;5072392;28;20021;-75
2021/06/08 08:33:45;;;;;;;2.20;1.63;;;23.30;99.90;;;;;;5070698;28;20422;-75
2021/06/08 08:36:12;;;;;;;0.57;0.57;;;23.50;99.90;;;;;;5053592;28;20032;-76
2021/06/08 08:38:38;;;;;;;0.60;0.60;;;23.90;99.90;;;;;;5070651;28;20131;-80
2021/06/08 08:41:05;;;;;;;1.15;0.73;;;23.90;99.90;;;;;;5069655;28;20103;-76
2021/06/08 08:43:31;;;;;;;0.60;0.60;;;23.30;99.90;;;;;;5095508;28;20026;-79
2021/06/08 08:45:57;;;;;;;0.75;0.75;;;23.80;99.90;;;;;;5082947;28;20035;-75
2021/06/08 08:48:23;;;;;;;0.95;0.90;;;23.80;99.90;;;;;;5100495;28;20043;-77
2021/06/08 08:50:50;;;;;;;2.35;1.63;;;23.90;99.90;;;;;;5098783;28;20024;-76
2021/06/08 08:53:21;;;;;;;0.60;0.60;;;24.30;99.90;;;;;;5100551;28;20031;-77
2021/06/08 08:55:46;;;;;;;0.82;0.75;;;24.20;99.90;;;;;;5098203;28;20035;-76
2021/06/08 08:58:15;;;;;;;7.68;1.40;;;23.50;99.90;;;;;;5095867;28;20078;-80
2021/06/08 09:00:42;;;;;;;0.70;0.70;;;23.40;99.90;;;;;;5094420;28;20092;-78
2021/06/08 09:03:11;;;;;;;1.75;1.60;;;23.50;99.90;;;;;;5091055;28;20436;-77
2021/06/08 09:05:39;;;;;;;1.08;1.02;;;23.90;99.90;;;;;;5091369;28;20028;-76
2021/06/08 09:08:06;;;;;;;1.52;1.42;;;24.20;99.90;;;;;;5072871;28;20039;-76
2021/06/08 09:10:34;;;;;;;1.25;1.08;;;24.60;99.90;;;;;;5088272;28;20020;-76
2021/06/08 09:13:00;;;;;;;0.90;0.90;;;24.90;99.90;;;;;;5053094;28;20074;-77
2021/06/08 09:15:26;;;;;;;0.60;0.60;;;25.00;99.90;;;;;;5084438;28;20391;-76
2021/06/08 09:17:56;;;;;;;0.60;0.60;;;25.20;99.90;;;;;;5090758;28;20012;-78
2021/06/08 09:20:23;;;;;;;0.50;0.50;;;24.60;99.90;;;;;;5090937;28;20028;-76
2021/06/08 09:22:56;;;;;;;2.00;1.45;;;24.70;99.90;;;;;;5091017;28;20177;-76
2021/06/08 09:25:37;;;;;;;4.43;1.58;;;25.20;99.90;;;;;;5090271;28;20043;-76
2021/06/08 09:28:27;;;;;;;0.80;0.65;;;25.60;99.90;;;;;;5070740;28;20025;-75
2021/06/08 09:30:59;;;;;;;0.50;0.50;;;25.60;99.90;;;;;;5085326;28;20020;-75
2021/06/08 09:33:28;;;;;;;2.47;1.85;;;25.70;99.80;;;;;;5090865;28;20495;-76
2021/06/08 09:35:56;;;;;;;2.33;1.58;;;25.60;99.10;;;;;;5090609;28;20126;-77
2021/06/08 09:38:50;;;;;;;0.45;0.45;;;25.20;97.90;;;;;;5090337;28;20035;-77
2021/06/08 09:41:50;;;;;;;1.60;1.27;;;25.10;98.40;;;;;;5085491;28;20056;-76
2021/06/08 09:44:18;;;;;;;0.70;0.70;;;25.70;98.70;;;;;;5064585;28;20115;-79
2021/06/08 09:46:56;;;;;;;0.63;0.63;;;26.00;97.60;;;;;;5070250;28;20133;-80
2021/06/08 09:49:30;;;;;;;0.60;0.60;;;26.10;96.90;;;;;;5069993;28;20388;-77
2021/06/08 09:52:02;;;;;;;0.80;0.80;;;26.10;97.40;;;;;;5070376;28;20025;-81
2021/06/08 09:54:33;;;;;;;1.63;0.70;;;26.10;96.20;;;;;;5070251;28;20443;-78
2021/06/08 09:57:29;;;;;;;2.50;0.60;;;26.40;97.40;;;;;;5051070;28;20530;-77
2021/06/08 09:59:59;;;;;;;1.00;0.85;;;26.80;95.90;;;;;;5052311;28;20029;-79
2021/06/08 10:02:38;;;;;;;0.68;0.60;;;26.80;95.10;;;;;;5073810;28;20020;-82
2021/06/08 10:05:17;;;;;;;0.63;0.60;;;26.40;95.50;;;;;;5074166;28;20045;-78
2021/06/08 10:07:44;;;;;;;1.23;1.05;;;26.50;95.00;;;;;;5091428;28;20090;-78
2021/06/08 10:10:12;;;;;;;0.52;0.52;;;26.40;94.40;;;;;;5094328;28;20024;-79
2021/06/08 10:13:15;;;;;;;0.55;0.50;;;26.80;94.70;;;;;;5078166;28;20039;-78
2021/06/08 10:15:58;;;;;;;0.40;0.40;;;26.60;93.00;;;;;;5073773;28;20037;-77
2021/06/08 10:18:26;;;;;;;0.75;0.75;;;27.10;93.90;;;;;;5073340;28;20051;-79
2021/06/08 10:20:57;;;;;;;0.40;0.40;;;26.90;93.80;;;;;;5073850;28;20029;-78
2021/06/08 10:23:31;;;;;;;0.40;0.40;;;26.80;93.20;;;;;;5078228;28;20095;-80
2021/06/08 10:26:11;;;;;;;0.75;0.75;;;26.60;93.50;;;;;;5092020;28;20048;-78
2021/06/08 10:28:37;;;;;;;0.88;0.82;;;26.10;94.00;;;;;;5073118;28;20085;-80
2021/06/08 10:31:04;;;;;;;0.55;0.55;;;26.00;95.00;;;;;;5073690;28;20033;-77
2021/06/08 10:33:30;;;;;;;0.40;0.40;;;25.90;95.80;;;;;;5073266;28;20060;-77
2021/06/08 10:35:56;;;;;;;0.43;0.43;;;25.90;96.50;;;;;;5073688;28;20039;-78
2021/06/08 10:38:23;;;;;;;0.88;0.88;;;25.60;96.80;;;;;;5073649;28;20367;-78
2021/06/08 10:40:53;;;;;;;0.82;0.82;;;24.80;97.40;;;;;;5073418;28;20028;-77
2021/06/08 10:43:22;;;;;;;0.63;0.63;;;24.10;99.90;;;;;;5073614;28;20462;-78
2021/06/08 10:45:55;;;;;;;0.95;0.73;;;24.10;99.90;;;;;;5073465;28;20039;-78
2021/06/08 10:48:29;;;;;;;0.63;0.63;;;23.90;99.90;;;;;;5072850;28;20027;-77
2021/06/08 10:51:19;;;;;;;0.88;0.88;;;22.80;99.90;;;;;;5073448;28;20017;-77
2021/06/08 10:53:46;;;;;;;0.90;0.85;;;22.40;99.90;;;;;;5073103;28;20029;-81
2021/06/08 10:56:30;;;;;;;0.88;0.88;;;22.60;99.90;;;;;;5073039;28;20131;-80
2021/06/08 10:58:59;;;;;;;0.88;0.88;;;22.60;99.90;;;;;;5072773;28;20082;-79
2021/06/08 11:01:31;;;;;;;0.70;0.70;;;22.60;99.90;;;;;;5072878;28;20108;-77
2021/06/08 11:03:59;;;;;;;1.10;1.02;;;22.70;99.90;;;;;;5073044;28;20031;-79
2021/06/08 11:06:37;;;;;;;0.60;0.60;;;22.80;99.90;;;;;;5073337;28;20017;-77
2021/06/08 11:09:07;;;;;;;0.70;0.70;;;23.30;99.90;;;;;;5072708;28;20028;-80
2021/06/08 11:11:45;;;;;;;0.65;0.63;;;23.60;99.90;;;;;;5076701;28;20023;-82
2021/06/08 11:14:39;;;;;;;17.08;3.53;;;23.80;99.90;;;;;;5095343;28;20453;-77
2021/06/08 11:17:09;;;;;;;0.90;0.90;;;24.00;99.90;;;;;;5101783;28;20099;-82
2021/06/08 11:19:55;;;;;;;1.08;1.00;;;24.30;99.90;;;;;;5101922;28;20428;-77
2021/06/08 11:22:42;;;;;;;0.68;0.68;;;24.50;99.90;;;;;;5100382;28;20063;-75
2021/06/08 11:25:28;;;;;;;0.95;0.95;;;24.20;99.90;;;;;;5083128;28;20554;-76
2021/06/08 11:28:00;;;;;;;1.25;1.15;;;24.40;99.90;;;;;;5103742;28;20404;-75
2021/06/08 11:30:28;;;;;;;0.82;0.82;;;24.70;99.90;;;;;;5103134;28;20426;-76
2021/06/08 11:32:55;;;;;;;1.38;1.27;;;24.70;99.40;;;;;;5101628;28;20086;-75
2021/06/08 11:35:42;;;;;;;0.55;0.55;;;24.80;99.30;;;;;;5102772;28;20019;-75
2021/06/08 11:38:12;;;;;;;0.60;0.60;;;24.90;98.70;;;;;;5102034;28;20027;-75
2021/06/08 11:40:38;;;;;;;0.95;0.93;;;25.00;98.50;;;;;;5099557;28;20024;-74
2021/06/08 11:43:27;;;;;;;1.77;1.63;;;25.00;97.50;;;;;;5102093;28;20011;-77
2021/06/08 11:46:06;;;;;;;0.50;0.50;;;24.60;96.10;;;;;;5103032;28;20076;-76
2021/06/08 11:48:34;;;;;;;0.50;0.50;;;24.40;97.30;;;;;;5103293;28;20020;-75
2021/06/08 11:51:01;;;;;;;2.05;1.42;;;24.30;96.60;;;;;;5081628;28;20039;-76
2021/06/08 11:53:27;;;;;;;1.40;1.30;;;24.50;96.40;;;;;;5083402;28;20553;-76
2021/06/08 11:56:04;;;;;;;1.35;1.25;;;24.80;94.70;;;;;;5081737;28;20544;-75
2021/06/08 11:58:35;;;;;;;1.35;1.15;;;24.90;94.80;;;;;;5080790;28;20016;-76
2021/06/08 12:01:03;;;;;;;0.47;0.47;;;25.20;95.30;;;;;;5081144;28;20016;-75
2021/06/08 12:03:32;;;;;;;0.50;0.50;;;25.40;94.90;;;;;;5102201;28;20039;-78
2021/06/08 12:06:00;;;;;;;0.50;0.50;;;25.60;94.00;;;;;;5113122;28;20478;-76
2021/06/08 12:08:32;;;;;;;1.45;1.33;;;25.70;94.20;;;;;;5112732;28;20565;-76
2021/06/08 12:10:59;;;;;;;1.15;1.00;;;25.90;93.90;;;;;;5112683;28;20494;-75
2021/06/08 12:13:33;;;;;;;0.50;0.50;;;26.00;92.50;;;;;;5112223;28;20028;-75
2021/06/08 12:16:00;;;;;;;0.57;0.57;;;25.90;90.10;;;;;;5112861;28;20118;-74
2021/06/08 12:18:37;;;;;;;0.50;0.50;;;25.70;90.70;;;;;;5112814;28;20031;-74
2021/06/08 12:21:10;;;;;;;0.80;0.80;;;25.90;90.60;;;;;;5112176;28;20023;-75
2021/06/08 12:23:37;;;;;;;0.47;0.47;;;25.90;90.10;;;;;;5109650;28;20695;-78
2021/06/08 12:26:13;;;;;;;0.40;0.40;;;26.00;87.60;;;;;;5092783;28;20036;-79
2021/06/08 12:28:41;;;;;;;0.50;0.50;;;26.10;87.70;;;;;;5082928;28;20148;-80
2021/06/08 12:31:20;;;;;;;0.73;0.68;;;26.50;86.70;;;;;;5077176;28;20036;-79
2021/06/08 12:33:47;;;;;;;0.70;0.70;;;26.60;86.80;;;;;;5073926;28;20051;-77
2021/06/08 12:36:16;;;;;;;1.73;1.10;;;27.10;86.10;;;;;;5091560;28;20387;-75
2021/06/08 12:38:49;;;;;;;0.73;0.70;;;26.60;84.60;;;;;;5099047;28;20085;-87
2021/06/08 12:41:16;;;;;;;1.00;0.70;;;26.70;84.50;;;;;;5100817;28;20049;-81
2021/06/08 12:43:48;;;;;;;0.98;0.93;;;26.90;85.40;;;;;;5098264;28;20042;-77
2021/06/08 12:46:31;;;;;;;0.70;0.70;;;26.90;84.70;;;;;;5099148;28;20016;-78
2021/06/08 12:49:10;;;;;;;1.70;0.90;;;27.00;82.20;;;;;;5099370;28;20121;-82
2021/06/08 12:51:43;;;;;;;0.43;0.43;;;26.40;79.70;;;;;;5099140;28;20020;-76
2021/06/08 12:54:26;;;;;;;1.95;1.27;;;26.50;79.40;;;;;;5097588;28;20123;-74
2021/06/08 12:56:53;;;;;;;0.73;0.73;;;26.50;78.70;;;;;;5098347;28;20024;-77
2021/06/08 12:59:32;;;;;;;0.60;0.60;;;26.80;79.00;;;;;;5094771;28;20046;-76